Time;durP1;ratioP1;P1;durP2;ratioP2;P2;SDS_P1;SDS_P2;PMS_P1;PMS_P2;Temp;Humidity;BMP_temperature;BMP_pressure;BME280_temperature;BME280_humidity;BME280_pressure;Samples;Min_cycle;Max_cycle;Signal;HPM_P1;HPM_P2
2022/09/11 00:01:36;;;;;;;0.80;0.52;;;16.60;77.30;;;;;;5034862;28;20043;-60
2022/09/11 00:04:03;;;;;;;2.05;0.80;;;16.60;77.30;;;;;;5036996;28;20344;-61
2022/09/11 00:06:29;;;;;;;1.25;0.30;;;16.60;77.20;;;;;;5036459;28;20029;-60
2022/09/11 00:08:59;;;;;;;2.05;0.70;;;16.60;77.20;;;;;;5031916;28;20037;-61
2022/09/11 00:11:27;;;;;;;2.78;0.47;;;16.60;77.20;;;;;;5036704;28;20126;-61
2022/09/11 00:13:53;;;;;;;0.65;0.40;;;16.60;77.30;;;;;;5034265;28;20068;-60
2022/09/11 00:16:32;;;;;;;1.27;0.50;;;16.60;77.30;;;;;;5035210;28;20036;-61
2022/09/11 00:19:01;;;;;;;0.88;0.45;;;16.60;77.70;;;;;;5036488;28;20522;-61
2022/09/11 00:21:28;;;;;;;1.80;0.57;;;16.60;77.40;;;;;;5036691;28;20382;-61
2022/09/11 00:23:54;;;;;;;1.55;0.50;;;16.60;77.40;;;;;;5037077;28;20033;-60
2022/09/11 00:26:21;;;;;;;1.40;0.60;;;16.50;77.30;;;;;;5036253;28;20600;-62
2022/09/11 00:28:49;;;;;;;1.40;0.50;;;16.50;77.50;;;;;;5036147;28;20037;-61
2022/09/11 00:31:19;;;;;;;0.77;0.40;;;16.50;77.60;;;;;;5036824;28;20446;-60
2022/09/11 00:33:45;;;;;;;1.48;0.40;;;16.50;77.80;;;;;;5034292;28;20048;-60
2022/09/11 00:36:19;;;;;;;1.25;0.60;;;16.50;77.80;;;;;;5033658;28;20029;-61
2022/09/11 00:38:46;;;;;;;1.05;0.30;;;16.50;78.20;;;;;;5036774;28;20025;-60
2022/09/11 00:41:15;;;;;;;1.08;0.50;;;16.50;77.90;;;;;;5037285;28;20048;-61
2022/09/11 00:44:03;;;;;;;0.98;0.45;;;16.50;78.00;;;;;;5033938;28;20037;-61
2022/09/11 00:46:31;;;;;;;1.35;0.50;;;16.50;78.30;;;;;;5034267;28;20048;-61
2022/09/11 00:48:59;;;;;;;1.00;0.30;;;16.50;78.00;;;;;;5034616;28;20513;-62
2022/09/11 00:51:29;;;;;;;1.10;0.60;;;16.50;78.10;;;;;;5033148;28;20052;-60
2022/09/11 00:53:57;;;;;;;1.52;0.40;;;16.50;78.20;;;;;;5032827;28;20572;-61
2022/09/11 00:56:28;;;;;;;2.25;0.60;;;16.50;78.30;;;;;;5032831;28;20451;-61
2022/09/11 00:58:56;;;;;;;2.15;0.75;;;16.50;78.50;;;;;;5030948;28;20489;-62
2022/09/11 01:01:21;;;;;;;0.95;0.50;;;16.50;78.60;;;;;;5036139;28;20602;-61
2022/09/11 01:03:47;;;;;;;1.00;0.45;;;16.50;78.60;;;;;;5033468;28;20060;-60
2022/09/11 01:06:13;;;;;;;2.20;0.70;;;16.50;78.70;;;;;;5035416;28;20060;-61
2022/09/11 01:08:39;;;;;;;2.38;0.63;;;16.50;78.70;;;;;;5034703;28;20476;-61
2022/09/11 01:11:04;;;;;;;2.70;0.73;;;16.50;78.60;;;;;;5034938;28;20292;-61
2022/09/11 01:13:46;;;;;;;0.85;0.40;;;16.40;78.50;;;;;;5034660;28;20394;-60
2022/09/11 01:16:27;;;;;;;0.80;0.50;;;16.40;79.10;;;;;;5034548;28;20585;-60
2022/09/11 01:19:21;;;;;;;1.10;0.50;;;16.40;78.90;;;;;;5008701;28;20041;-61
2022/09/11 01:22:05;;;;;;;1.05;0.75;;;16.40;79.30;;;;;;5011364;28;20040;-59
2022/09/11 01:24:51;;;;;;;1.23;0.40;;;16.40;78.70;;;;;;5011024;28;20041;-61
2022/09/11 01:27:42;;;;;;;0.50;0.40;;;16.40;80.10;;;;;;5011634;28;20565;-60
2022/09/11 01:30:15;;;;;;;0.80;0.30;;;16.40;79.30;;;;;;5011236;28;20034;-61
2022/09/11 01:32:40;;;;;;;3.15;0.50;;;16.40;79.30;;;;;;5010166;28;20041;-61
2022/09/11 01:35:30;;;;;;;1.05;0.60;;;16.40;79.10;;;;;;5013900;28;20087;-61
2022/09/11 01:38:11;;;;;;;1.95;0.68;;;16.30;79.60;;;;;;5010345;28;20048;-62
2022/09/11 01:40:48;;;;;;;1.23;0.50;;;16.30;79.50;;;;;;5009225;28;20137;-60
2022/09/11 01:43:25;;;;;;;0.75;0.52;;;16.30;79.40;;;;;;5012157;28;20574;-61
2022/09/11 01:45:52;;;;;;;2.25;0.57;;;16.30;79.40;;;;;;5009389;28;20038;-60
2022/09/11 01:48:22;;;;;;;2.05;0.50;;;16.40;79.30;;;;;;5010940;28;20042;-62
2022/09/11 01:50:51;;;;;;;1.63;0.60;;;16.30;79.30;;;;;;5009040;28;20852;-62
2022/09/11 01:53:20;;;;;;;1.75;0.40;;;16.30;79.30;;;;;;5013310;28;20045;-59
2022/09/11 01:55:56;;;;;;;1.00;0.50;;;16.30;79.30;;;;;;5008921;28;20548;-61
2022/09/11 01:58:29;;;;;;;0.55;0.43;;;16.30;79.40;;;;;;5010845;28;20069;-61
2022/09/11 02:01:08;;;;;;;0.38;0.30;;;16.40;79.60;;;;;;5029992;28;20033;-61
2022/09/11 02:03:38;;;;;;;0.88;0.40;;;16.30;79.50;;;;;;5030027;28;20037;-61
2022/09/11 02:06:11;;;;;;;2.08;0.40;;;16.30;79.40;;;;;;5031804;28;20044;-61
2022/09/11 02:08:49;;;;;;;2.13;0.50;;;16.30;79.40;;;;;;5030106;28;20045;-59
2022/09/11 02:11:15;;;;;;;1.55;0.50;;;16.30;79.80;;;;;;5027783;28;20033;-61
2022/09/11 02:13:59;;;;;;;1.75;0.50;;;16.30;79.40;;;;;;5031049;28;20048;-59
2022/09/11 02:16:47;;;;;;;2.22;0.60;;;16.40;79.70;;;;;;5029463;28;20064;-60
2022/09/11 02:19:26;;;;;;;0.70;0.40;;;16.40;79.70;;;;;;5028784;28;20044;-59
2022/09/11 02:21:53;;;;;;;1.38;0.40;;;16.30;79.50;;;;;;5030347;28;20148;-60
2022/09/11 02:24:21;;;;;;;1.58;0.60;;;16.40;80.20;;;;;;5028089;28;20627;-61
2022/09/11 02:26:51;;;;;;;0.95;0.40;;;16.30;79.40;;;;;;5027325;28;20061;-59
2022/09/11 02:29:17;;;;;;;2.30;0.63;;;16.40;79.60;;;;;;5029653;28;20037;-61
2022/09/11 02:31:44;;;;;;;1.15;0.60;;;16.40;79.50;;;;;;5027188;28;20048;-61
2022/09/11 02:34:13;;;;;;;2.53;0.60;;;16.40;79.60;;;;;;5031226;28;20033;-61
2022/09/11 02:37:07;;;;;;;1.75;0.60;;;16.40;79.70;;;;;;5025617;28;20038;-60
2022/09/11 02:39:38;;;;;;;1.23;0.40;;;16.30;79.90;;;;;;5029907;28;20040;-61
2022/09/11 02:42:11;;;;;;;0.77;0.55;;;16.30;79.60;;;;;;5031731;28;20102;-62
2022/09/11 02:44:55;;;;;;;1.85;0.57;;;16.30;80.50;;;;;;5027221;28;20038;-61
2022/09/11 02:47:58;;;;;;;1.40;0.88;;;16.30;79.50;;;;;;5028512;28;20568;-60
2022/09/11 02:50:39;;;;;;;1.55;0.75;;;16.30;79.70;;;;;;5029882;28;20049;-60
2022/09/11 02:53:17;;;;;;;1.73;0.60;;;16.30;79.50;;;;;;5028753;28;20393;-62
2022/09/11 02:55:59;;;;;;;0.90;0.55;;;16.40;79.80;;;;;;5029347;28;20037;-60
2022/09/11 02:58:31;;;;;;;1.33;0.47;;;16.30;80.50;;;;;;5028610;28;20478;-61
2022/09/11 03:01:01;;;;;;;2.38;0.65;;;16.30;79.40;;;;;;5028481;28;20040;-59
2022/09/11 03:03:28;;;;;;;1.45;0.70;;;16.30;79.40;;;;;;5026526;28;20630;-61
2022/09/11 03:05:54;;;;;;;0.98;0.40;;;16.30;79.40;;;;;;5029323;28;20033;-60
2022/09/11 03:08:20;;;;;;;2.45;0.60;;;16.30;79.40;;;;;;5030100;28;20046;-61
2022/09/11 03:10:48;;;;;;;1.55;0.63;;;16.30;79.60;;;;;;5026760;28;20036;-62
2022/09/11 03:13:15;;;;;;;1.35;0.55;;;16.30;79.60;;;;;;5028151;28;20041;-62
2022/09/11 03:15:42;;;;;;;1.48;0.73;;;16.30;79.70;;;;;;5027506;28;20051;-60
2022/09/11 03:18:09;;;;;;;0.75;0.60;;;16.30;79.70;;;;;;5027201;28;20756;-58
2022/09/11 03:20:34;;;;;;;0.90;0.40;;;16.30;79.70;;;;;;5027948;28;20025;-61
2022/09/11 03:23:00;;;;;;;2.45;0.70;;;16.30;79.80;;;;;;5026665;28;20033;-61
2022/09/11 03:25:27;;;;;;;2.15;0.63;;;16.30;79.70;;;;;;5031019;28;20311;-61
2022/09/11 03:27:53;;;;;;;1.63;0.63;;;16.30;79.60;;;;;;5028053;28;20053;-60
2022/09/11 03:30:19;;;;;;;1.50;0.65;;;16.40;79.60;;;;;;5027293;28;20041;-60
2022/09/11 03:32:45;;;;;;;1.95;0.70;;;16.40;79.60;;;;;;5026124;28;20041;-59
2022/09/11 03:35:10;;;;;;;1.35;0.43;;;16.40;79.60;;;;;;5027305;28;20052;-60
2022/09/11 03:37:36;;;;;;;1.58;0.50;;;16.40;79.50;;;;;;5027598;28;20037;-61
2022/09/11 03:40:02;;;;;;;1.95;0.75;;;16.30;79.40;;;;;;5027527;28;20048;-59
2022/09/11 03:42:28;;;;;;;1.73;0.55;;;16.40;79.60;;;;;;5028269;28;20037;-59
2022/09/11 03:44:53;;;;;;;0.63;0.50;;;16.30;79.60;;;;;;5027273;28;20563;-59
2022/09/11 03:47:21;;;;;;;1.73;0.75;;;16.30;79.60;;;;;;5028454;28;20046;-60
2022/09/11 03:49:47;;;;;;;2.33;0.60;;;16.30;79.50;;;;;;5025309;28;20099;-59
2022/09/11 03:52:12;;;;;;;2.30;0.70;;;16.30;79.60;;;;;;5030474;28;20059;-62
2022/09/11 03:54:38;;;;;;;0.80;0.57;;;16.30;79.60;;;;;;5030313;28;20037;-61
2022/09/11 03:57:04;;;;;;;1.38;0.70;;;16.30;79.60;;;;;;5032467;28;20083;-61
2022/09/11 03:59:30;;;;;;;2.67;0.60;;;16.30;79.60;;;;;;5032881;28;20033;-62
2022/09/11 04:01:56;;;;;;;3.33;0.75;;;16.30;79.60;;;;;;5031085;28;20041;-60
2022/09/11 04:04:21;;;;;;;1.88;0.63;;;16.30;79.50;;;;;;5028708;28;20130;-60
2022/09/11 04:06:47;;;;;;;1.95;0.77;;;16.30;79.40;;;;;;5029268;28;20052;-61
2022/09/11 04:09:12;;;;;;;1.27;0.55;;;16.30;79.40;;;;;;5030256;28;20037;-61
2022/09/11 04:11:39;;;;;;;2.55;0.70;;;16.30;79.40;;;;;;5030809;28;20032;-61
2022/09/11 04:14:05;;;;;;;1.17;0.60;;;16.30;79.40;;;;;;5029798;28;20038;-61
2022/09/11 04:16:32;;;;;;;0.82;0.60;;;16.30;79.50;;;;;;5030585;28;20197;-61
2022/09/11 04:19:02;;;;;;;1.20;0.50;;;16.30;79.50;;;;;;5028050;28;20190;-59
2022/09/11 04:21:28;;;;;;;1.38;0.65;;;16.30;79.60;;;;;;5029600;28;20043;-59
2022/09/11 04:23:55;;;;;;;2.72;0.85;;;16.30;79.50;;;;;;5029965;28;20029;-61
2022/09/11 04:26:23;;;;;;;2.63;0.63;;;16.30;79.60;;;;;;5029971;28;20033;-61
2022/09/11 04:28:49;;;;;;;2.92;0.60;;;16.30;79.80;;;;;;5028302;28;20041;-61
2022/09/11 04:31:16;;;;;;;9.25;4.47;;;16.30;79.90;;;;;;5026765;28;20029;-63
2022/09/11 04:33:42;;;;;;;2.92;1.80;;;16.30;80.00;;;;;;5030134;28;20554;-62
2022/09/11 04:36:10;;;;;;;6.50;4.47;;;16.30;80.00;;;;;;5031088;28;20152;-61
2022/09/11 04:38:36;;;;;;;1.70;1.25;;;16.20;80.90;;;;;;5032368;28;20029;-63
2022/09/11 04:41:04;;;;;;;3.58;1.73;;;16.20;80.10;;;;;;5029246;28;20382;-62
2022/09/11 04:43:30;;;;;;;3.33;2.40;;;16.30;80.30;;;;;;5029741;28;20046;-60
2022/09/11 04:46:18;;;;;;;2.05;1.40;;;16.20;80.40;;;;;;5026201;28;20044;-60
2022/09/11 04:48:50;;;;;;;2.35;0.90;;;16.20;80.60;;;;;;5028439;28;20044;-62
2022/09/11 04:51:31;;;;;;;1.17;1.02;;;16.20;80.70;;;;;;5028145;28;20594;-61
2022/09/11 04:53:57;;;;;;;1.42;0.73;;;16.20;81.00;;;;;;5032049;28;20037;-61
2022/09/11 04:56:28;;;;;;;1.65;1.10;;;16.20;81.60;;;;;;5030931;28;20037;-61
2022/09/11 04:59:21;;;;;;;0.80;0.70;;;16.20;80.80;;;;;;5028968;28;20029;-60
2022/09/11 05:01:47;;;;;;;0.95;0.60;;;16.20;80.90;;;;;;5028274;28;20512;-61
2022/09/11 05:04:14;;;;;;;1.90;0.70;;;16.20;80.70;;;;;;5028799;28;20072;-60
2022/09/11 05:06:41;;;;;;;2.47;0.70;;;16.20;80.80;;;;;;5028194;28;20072;-61
2022/09/11 05:09:09;;;;;;;1.35;0.60;;;16.20;80.90;;;;;;5030535;28;20124;-61
2022/09/11 05:11:37;;;;;;;1.15;1.00;;;16.20;81.90;;;;;;5030030;28;20044;-59
2022/09/11 05:14:03;;;;;;;1.65;0.80;;;16.10;81.00;;;;;;5031962;28;20037;-60
2022/09/11 05:16:29;;;;;;;2.30;0.82;;;16.20;81.10;;;;;;5027730;28;20082;-61
2022/09/11 05:18:56;;;;;;;0.80;0.80;;;16.20;81.10;;;;;;5030852;28;20063;-60
2022/09/11 05:21:23;;;;;;;1.80;0.77;;;16.10;81.20;;;;;;5027977;28;20033;-62
2022/09/11 05:23:52;;;;;;;1.08;0.70;;;16.10;81.20;;;;;;5028375;28;20112;-60
2022/09/11 05:26:20;;;;;;;2.08;0.80;;;16.10;81.20;;;;;;5030055;28;20037;-60
2022/09/11 05:28:45;;;;;;;2.13;0.93;;;16.10;81.30;;;;;;5030656;28;20028;-61
2022/09/11 05:31:16;;;;;;;4.22;0.70;;;16.10;81.30;;;;;;5030826;28;20063;-60
2022/09/11 05:33:43;;;;;;;1.70;0.60;;;16.10;81.50;;;;;;5028807;28;20525;-59
2022/09/11 05:36:10;;;;;;;2.10;0.93;;;16.10;81.40;;;;;;5027195;28;20033;-58
2022/09/11 05:38:36;;;;;;;1.77;0.52;;;16.10;81.50;;;;;;5028894;28;20029;-62
2022/09/11 05:41:05;;;;;;;1.45;0.80;;;16.20;82.40;;;;;;5030038;28;20087;-61
2022/09/11 05:43:32;;;;;;;0.57;0.47;;;16.20;81.70;;;;;;5030471;28;20546;-59
2022/09/11 05:45:58;;;;;;;1.67;0.68;;;16.20;81.70;;;;;;5027454;28;20509;-60
2022/09/11 05:48:26;;;;;;;1.80;0.63;;;16.20;81.50;;;;;;5029315;28;20055;-60
2022/09/11 05:50:58;;;;;;;2.00;0.60;;;16.20;81.50;;;;;;5028266;28;20037;-61
2022/09/11 05:53:24;;;;;;;2.78;0.60;;;16.20;81.50;;;;;;5027483;28;20157;-59
2022/09/11 05:55:50;;;;;;;1.65;0.77;;;16.20;81.50;;;;;;5026811;28;20033;-61
2022/09/11 05:58:17;;;;;;;1.00;0.60;;;16.20;81.30;;;;;;5027853;28;20048;-60
2022/09/11 06:00:46;;;;;;;1.48;0.60;;;16.20;81.50;;;;;;5031215;28;20035;-62
2022/09/11 06:03:13;;;;;;;1.35;0.60;;;16.20;81.50;;;;;;5028329;28;20092;-60
2022/09/11 06:05:39;;;;;;;1.67;0.60;;;16.20;81.30;;;;;;5030398;28;20033;-61
2022/09/11 06:08:05;;;;;;;1.38;0.65;;;16.20;81.30;;;;;;5029486;28;20029;-61
2022/09/11 06:10:31;;;;;;;1.33;0.68;;;16.30;81.60;;;;;;5027436;28;20180;-61
2022/09/11 06:12:56;;;;;;;1.25;0.60;;;16.30;81.60;;;;;;5025891;28;20037;-60
2022/09/11 06:15:23;;;;;;;1.20;0.70;;;16.30;81.50;;;;;;5028915;28;20058;-61
2022/09/11 06:17:49;;;;;;;1.55;0.70;;;16.30;81.60;;;;;;5029095;28;20033;-61
2022/09/11 06:20:14;;;;;;;0.60;0.50;;;16.30;81.50;;;;;;5027412;28;20044;-61
2022/09/11 06:22:40;;;;;;;3.83;0.70;;;16.30;81.50;;;;;;5027096;28;20049;-61
2022/09/11 06:25:06;;;;;;;1.70;0.73;;;16.40;81.50;;;;;;5025732;28;20596;-61
2022/09/11 06:27:31;;;;;;;0.77;0.50;;;16.40;81.50;;;;;;5027350;28;20582;-61
2022/09/11 06:29:57;;;;;;;1.45;0.65;;;16.40;81.50;;;;;;5026239;28;20037;-61
2022/09/11 06:32:22;;;;;;;0.95;0.52;;;16.40;81.50;;;;;;5028448;28;20037;-61
2022/09/11 06:34:48;;;;;;;3.30;0.82;;;16.40;81.50;;;;;;5026915;28;20049;-61
2022/09/11 06:37:13;;;;;;;1.83;0.73;;;16.40;81.60;;;;;;5026468;28;20120;-59
2022/09/11 06:39:39;;;;;;;1.15;0.60;;;16.50;81.70;;;;;;5030935;28;20025;-60
2022/09/11 06:42:06;;;;;;;0.60;0.60;;;16.50;81.60;;;;;;5026191;28;20566;-60
2022/09/11 06:44:32;;;;;;;1.42;0.80;;;16.50;81.50;;;;;;5027715;28;20053;-61
2022/09/11 06:46:58;;;;;;;2.17;0.60;;;16.60;81.60;;;;;;5026455;28;20238;-61
2022/09/11 06:49:24;;;;;;;0.75;0.60;;;16.60;81.50;;;;;;5027391;28;20428;-60
2022/09/11 06:51:51;;;;;;;2.40;0.60;;;16.60;81.50;;;;;;5027627;28;20032;-61
2022/09/11 06:54:16;;;;;;;0.93;0.70;;;16.60;81.40;;;;;;5025697;28;20042;-62
2022/09/11 06:56:44;;;;;;;1.35;0.60;;;16.70;81.30;;;;;;5028877;28;20623;-62
2022/09/11 06:59:09;;;;;;;1.42;0.63;;;16.70;81.20;;;;;;5028633;28;20035;-61
2022/09/11 07:01:35;;;;;;;2.80;0.95;;;16.70;81.00;;;;;;5025787;28;20037;-58
2022/09/11 07:04:01;;;;;;;1.20;0.90;;;16.70;80.80;;;;;;5025594;28;20444;-61
2022/09/11 07:06:29;;;;;;;2.13;0.90;;;16.80;80.80;;;;;;5028170;28;20449;-60
2022/09/11 07:09:02;;;;;;;1.55;0.93;;;16.80;80.90;;;;;;5027933;28;20037;-60
2022/09/11 07:11:33;;;;;;;3.95;0.75;;;16.80;81.20;;;;;;5023851;28;20041;-61
2022/09/11 07:14:01;;;;;;;1.20;0.70;;;16.90;81.10;;;;;;5025792;28;20037;-61
2022/09/11 07:16:27;;;;;;;1.63;0.93;;;16.90;81.10;;;;;;5030754;28;20060;-61
2022/09/11 07:18:53;;;;;;;1.85;0.70;;;16.90;81.00;;;;;;5026630;28;20497;-61
2022/09/11 07:21:21;;;;;;;1.67;0.70;;;17.00;81.10;;;;;;5026759;28;20036;-59
2022/09/11 07:23:49;;;;;;;1.17;1.00;;;17.00;81.20;;;;;;5029026;28;20069;-60
2022/09/11 07:26:16;;;;;;;1.48;0.70;;;17.00;81.00;;;;;;5031307;28;20037;-59
2022/09/11 07:28:42;;;;;;;2.35;0.98;;;17.10;80.90;;;;;;5032845;28;20029;-60
2022/09/11 07:31:10;;;;;;;2.80;0.82;;;17.10;80.50;;;;;;5031232;28;20087;-60
2022/09/11 07:33:41;;;;;;;1.00;0.63;;;17.10;80.30;;;;;;5032232;28;20091;-60
2022/09/11 07:36:13;;;;;;;1.20;0.85;;;17.10;80.30;;;;;;5031556;28;20094;-62
2022/09/11 07:38:40;;;;;;;0.68;0.68;;;17.10;80.30;;;;;;5033280;28;20149;-61
2022/09/11 07:41:07;;;;;;;2.45;0.80;;;17.20;80.30;;;;;;5031309;28;20078;-61
2022/09/11 07:43:34;;;;;;;1.30;0.70;;;17.20;80.20;;;;;;5032604;28;20064;-62
2022/09/11 07:46:00;;;;;;;3.10;0.90;;;17.20;80.30;;;;;;5032277;28;20310;-61
2022/09/11 07:48:25;;;;;;;1.48;0.80;;;17.20;80.30;;;;;;5033576;28;20099;-59
2022/09/11 07:51:08;;;;;;;3.90;0.80;;;17.30;80.30;;;;;;5032171;28;20484;-59
2022/09/11 07:53:51;;;;;;;1.83;1.25;;;17.30;80.30;;;;;;5030301;28;20076;-60
2022/09/11 07:56:19;;;;;;;2.05;0.98;;;17.30;80.10;;;;;;5031000;28;20047;-60
2022/09/11 07:58:45;;;;;;;1.88;1.05;;;17.40;80.30;;;;;;5033905;28;20033;-59
2022/09/11 08:01:14;;;;;;;1.85;1.20;;;17.40;80.10;;;;;;5033046;28;20132;-59
2022/09/11 08:03:41;;;;;;;1.95;1.38;;;17.40;80.10;;;;;;5035605;28;20045;-59
2022/09/11 08:06:12;;;;;;;1.40;1.17;;;17.40;80.20;;;;;;5034084;28;20037;-61
2022/09/11 08:08:39;;;;;;;1.65;1.40;;;17.50;80.30;;;;;;5034198;28;20120;-60
2022/09/11 08:11:07;;;;;;;1.80;1.42;;;17.50;80.30;;;;;;5030458;28;20063;-61
2022/09/11 08:13:34;;;;;;;2.30;1.60;;;17.50;79.90;;;;;;5033527;28;20117;-59
2022/09/11 08:16:00;;;;;;;2.75;1.38;;;17.60;80.10;;;;;;5033193;28;20375;-61
2022/09/11 08:18:26;;;;;;;1.70;0.90;;;17.70;80.40;;;;;;5033416;28;20318;-60
2022/09/11 08:21:07;;;;;;;2.85;1.25;;;17.80;80.50;;;;;;5032478;28;20044;-60
2022/09/11 08:23:34;;;;;;;1.38;1.30;;;17.80;80.10;;;;;;5034685;28;20040;-61
2022/09/11 08:26:04;;;;;;;1.67;1.08;;;17.80;79.80;;;;;;5032384;28;20389;-62
2022/09/11 08:28:30;;;;;;;2.28;1.50;;;17.90;79.60;;;;;;5032382;28;20037;-62
2022/09/11 08:30:57;;;;;;;3.00;1.20;;;18.00;79.60;;;;;;5030437;28;20501;-60
2022/09/11 08:33:23;;;;;;;1.70;1.60;;;18.00;79.50;;;;;;5032021;28;20037;-60
2022/09/11 08:35:49;;;;;;;2.72;1.48;;;18.00;79.30;;;;;;5035764;28;20041;-61
2022/09/11 08:38:14;;;;;;;1.60;1.40;;;18.10;79.10;;;;;;5031048;28;20049;-60
2022/09/11 08:40:40;;;;;;;3.00;1.50;;;18.10;79.00;;;;;;5032351;28;20041;-60
2022/09/11 08:43:23;;;;;;;1.30;1.17;;;18.10;78.70;;;;;;5031684;28;20413;-61
2022/09/11 08:45:54;;;;;;;2.80;1.40;;;18.20;78.50;;;;;;5035446;28;20102;-61
2022/09/11 08:48:31;;;;;;;1.63;1.10;;;18.30;78.40;;;;;;5031552;28;20257;-61
2022/09/11 08:50:57;;;;;;;0.93;0.85;;;18.20;78.20;;;;;;5033676;28;20400;-62
2022/09/11 08:53:24;;;;;;;1.17;1.00;;;18.20;78.20;;;;;;5032183;28;20033;-62
2022/09/11 08:55:51;;;;;;;1.27;0.90;;;18.30;77.80;;;;;;5032962;28;20048;-62
2022/09/11 08:58:32;;;;;;;1.30;1.20;;;18.30;77.90;;;;;;5033303;28;20075;-61
2022/09/11 09:01:11;;;;;;;2.83;2.40;;;18.30;77.60;;;;;;5013852;28;20100;-61
2022/09/11 09:03:54;;;;;;;2.72;2.10;;;18.40;77.20;;;;;;5012094;28;20046;-60
2022/09/11 09:06:20;;;;;;;3.58;2.13;;;18.40;77.10;;;;;;5011836;28;20046;-60
2022/09/11 09:09:00;;;;;;;2.15;1.95;;;18.40;77.30;;;;;;5011128;28;20033;-61
2022/09/11 09:11:54;;;;;;;2.20;2.00;;;18.40;77.50;;;;;;5008941;28;20041;-60
2022/09/11 09:14:55;;;;;;;2.83;2.50;;;18.50;77.20;;;;;;5011480;28;20038;-60
2022/09/11 09:17:36;;;;;;;2.25;2.13;;;18.50;77.30;;;;;;5010297;28;20537;-59
2022/09/11 09:20:27;;;;;;;2.13;1.80;;;18.60;77.30;;;;;;5009840;28;20048;-59
2022/09/11 09:23:05;;;;;;;1.67;1.48;;;18.70;77.20;;;;;;5025963;28;20051;-58
2022/09/11 09:25:37;;;;;;;1.48;1.25;;;18.80;77.20;;;;;;5036576;28;20112;-58
2022/09/11 09:28:23;;;;;;;2.45;2.25;;;18.90;77.30;;;;;;5031572;28;20028;-59
2022/09/11 09:30:58;;;;;;;3.55;3.00;;;19.00;76.80;;;;;;5030124;28;20120;-60
2022/09/11 09:33:31;;;;;;;3.10;2.90;;;19.00;75.80;;;;;;5033965;28;20091;-60
2022/09/11 09:36:22;;;;;;;3.95;3.65;;;19.10;74.70;;;;;;5030601;28;20133;-58
2022/09/11 09:38:48;;;;;;;3.75;3.50;;;19.10;75.40;;;;;;5033228;28;20057;-60
2022/09/11 09:41:41;;;;;;;4.88;3.65;;;19.20;75.30;;;;;;5029422;28;20083;-60
2022/09/11 09:44:50;;;;;;;3.88;3.53;;;19.20;73.20;;;;;;5032236;28;20033;-60
2022/09/11 09:47:16;;;;;;;3.88;3.45;;;19.20;71.10;;;;;;5032777;28;20033;-59
2022/09/11 09:49:43;;;;;;;3.33;3.00;;;19.30;73.20;;;;;;5030591;28;20464;-60
2022/09/11 09:52:21;;;;;;;3.58;3.28;;;19.30;73.30;;;;;;5031806;28;20042;-59
2022/09/11 09:55:05;;;;;;;3.22;2.92;;;19.30;72.50;;;;;;5027396;28;20052;-60
2022/09/11 09:57:40;;;;;;;3.17;2.97;;;19.30;72.40;;;;;;5032087;28;20033;-59
2022/09/11 10:00:10;;;;;;;3.70;3.40;;;19.30;72.30;;;;;;5034246;28;20449;-61
2022/09/11 10:02:48;;;;;;;3.45;3.25;;;19.30;72.80;;;;;;5033714;28;20052;-60
2022/09/11 10:05:19;;;;;;;3.80;3.53;;;19.40;72.20;;;;;;5036065;28;20491;-61
2022/09/11 10:08:00;;;;;;;3.47;3.17;;;19.40;72.10;;;;;;5033312;28;20082;-60
2022/09/11 10:10:30;;;;;;;4.13;3.03;;;19.50;72.40;;;;;;5035077;28;20040;-60
2022/09/11 10:13:01;;;;;;;4.22;2.63;;;19.60;72.30;;;;;;5032729;28;20038;-60
2022/09/11 10:15:26;;;;;;;2.97;2.78;;;19.60;72.00;;;;;;5034605;28;20187;-59
2022/09/11 10:17:55;;;;;;;3.00;2.80;;;19.70;72.50;;;;;;5031659;28;20060;-60
2022/09/11 10:20:25;;;;;;;3.47;3.17;;;19.70;71.40;;;;;;5029061;28;20268;-59
2022/09/11 10:22:53;;;;;;;3.92;3.63;;;19.80;71.00;;;;;;5015100;28;20038;-61
2022/09/11 10:25:22;;;;;;;3.40;3.20;;;19.80;70.60;;;;;;5031724;28;20112;-61
2022/09/11 10:27:58;;;;;;;3.47;3.20;;;19.80;69.50;;;;;;5031487;28;20489;-59
2022/09/11 10:30:26;;;;;;;3.67;3.38;;;19.80;69.30;;;;;;5032348;28;20045;-61
2022/09/11 10:32:54;;;;;;;3.45;3.20;;;19.80;69.00;;;;;;5031947;28;20040;-61
2022/09/11 10:35:20;;;;;;;3.50;3.10;;;19.90;69.50;;;;;;5034081;28;20041;-61
2022/09/11 10:38:17;;;;;;;2.85;2.65;;;19.90;69.70;;;;;;5033674;28;20041;-60
2022/09/11 10:41:00;;;;;;;3.58;3.33;;;20.00;68.30;;;;;;5031697;28;20363;-62
2022/09/11 10:43:34;;;;;;;3.72;3.22;;;20.10;68.30;;;;;;5033921;28;20037;-61
2022/09/11 10:46:20;;;;;;;3.38;3.08;;;20.20;68.80;;;;;;5032675;28;20044;-60
2022/09/11 10:48:58;;;;;;;2.65;2.45;;;20.30;68.50;;;;;;5033331;28;20740;-60
2022/09/11 10:51:27;;;;;;;2.97;2.55;;;20.30;69.00;;;;;;5032567;28;20049;-61
2022/09/11 10:54:07;;;;;;;3.60;3.30;;;20.40;69.20;;;;;;5031861;28;20120;-62
2022/09/11 10:56:39;;;;;;;3.00;2.60;;;20.60;68.30;;;;;;5032986;28;20042;-62
2022/09/11 10:59:11;;;;;;;3.45;3.25;;;20.70;68.40;;;;;;5031919;28;20394;-61
2022/09/11 11:01:37;;;;;;;3.28;3.08;;;20.80;67.30;;;;;;5032146;28;20532;-61
2022/09/11 11:04:03;;;;;;;2.90;2.70;;;20.90;67.10;;;;;;5030817;28;20037;-62
2022/09/11 11:06:37;;;;;;;3.33;3.05;;;20.90;66.90;;;;;;5030384;28;20040;-61
2022/09/11 11:09:13;;;;;;;2.80;2.40;;;21.00;65.20;;;;;;5032630;28;20048;-61
2022/09/11 11:11:54;;;;;;;4.28;2.45;;;21.00;66.70;;;;;;5032187;28;20037;-61
2022/09/11 11:14:39;;;;;;;2.40;2.28;;;21.10;65.20;;;;;;5028646;28;20040;-61
2022/09/11 11:17:08;;;;;;;2.70;2.55;;;21.10;65.10;;;;;;5026426;28;20052;-61
2022/09/11 11:19:52;;;;;;;2.28;2.08;;;21.20;66.00;;;;;;5030063;28;20684;-61
2022/09/11 11:22:28;;;;;;;6.00;2.40;;;21.20;64.50;;;;;;5030964;28;20569;-61
2022/09/11 11:25:05;;;;;;;2.75;2.55;;;21.20;65.60;;;;;;5032973;28;20029;-60
2022/09/11 11:27:56;;;;;;;2.38;2.17;;;21.30;65.90;;;;;;5031530;28;20029;-61
2022/09/11 11:30:30;;;;;;;2.60;2.42;;;21.30;64.60;;;;;;5032996;28;20029;-61
2022/09/11 11:33:04;;;;;;;2.53;2.33;;;21.40;63.60;;;;;;5028713;28;20048;-61
2022/09/11 11:35:47;;;;;;;2.97;2.78;;;21.50;64.10;;;;;;5034091;28;20080;-61
2022/09/11 11:38:21;;;;;;;2.30;2.10;;;21.50;64.00;;;;;;5033830;28;20068;-61
2022/09/11 11:40:53;;;;;;;2.05;1.95;;;21.50;63.60;;;;;;5029061;28;20406;-60
2022/09/11 11:43:22;;;;;;;2.10;2.00;;;21.60;61.90;;;;;;5033032;28;20581;-61
2022/09/11 11:46:00;;;;;;;2.17;1.98;;;21.50;61.40;;;;;;5030310;28;20137;-61
2022/09/11 11:48:34;;;;;;;2.42;2.30;;;21.50;62.10;;;;;;5028929;28;20045;-61
2022/09/11 11:51:14;;;;;;;2.47;2.28;;;21.50;62.70;;;;;;5027655;28;20373;-61
2022/09/11 11:53:43;;;;;;;2.20;2.10;;;21.50;62.20;;;;;;5032174;28;20030;-61
2022/09/11 11:56:40;;;;;;;2.47;2.35;;;21.50;63.10;;;;;;5031440;28;20040;-61
2022/09/11 11:59:15;;;;;;;2.30;2.20;;;21.50;63.30;;;;;;5017097;28;20038;-61
2022/09/11 12:01:43;;;;;;;2.10;2.00;;;21.50;62.10;;;;;;5012701;28;20046;-61
2022/09/11 12:04:27;;;;;;;2.28;2.17;;;21.50;62.70;;;;;;5012299;28;20371;-61
2022/09/11 12:06:53;;;;;;;1.87;1.73;;;21.50;61.90;;;;;;5025438;28;20056;-61
2022/09/11 12:09:19;;;;;;;2.00;1.75;;;21.60;62.80;;;;;;5024879;28;20293;-60
2022/09/11 12:11:51;;;;;;;1.88;1.73;;;21.60;61.70;;;;;;5010593;28;20034;-60
2022/09/11 12:14:28;;;;;;;2.75;1.63;;;21.70;60.70;;;;;;5017530;28;20073;-61
2022/09/11 12:17:14;;;;;;;1.80;1.70;;;21.60;60.00;;;;;;5014917;28;20030;-62
2022/09/11 12:20:08;;;;;;;2.20;2.00;;;21.60;61.20;;;;;;5016511;28;20037;-61
2022/09/11 12:22:48;;;;;;;1.85;1.75;;;21.60;61.10;;;;;;5013908;28;20036;-60
2022/09/11 12:25:19;;;;;;;2.15;1.80;;;21.60;61.50;;;;;;5012071;28;20049;-59
2022/09/11 12:27:45;;;;;;;2.13;2.03;;;21.60;60.90;;;;;;5015479;28;20038;-61
2022/09/11 12:30:17;;;;;;;1.65;1.55;;;21.60;60.80;;;;;;5015613;28;20513;-60
2022/09/11 12:32:46;;;;;;;1.90;1.80;;;21.60;60.90;;;;;;5012381;28;20133;-61
2022/09/11 12:35:18;;;;;;;2.17;2.00;;;21.50;60.80;;;;;;5008197;28;20142;-62
2022/09/11 12:37:56;;;;;;;1.98;1.88;;;21.60;59.90;;;;;;5013904;28;20048;-61
2022/09/11 12:40:37;;;;;;;1.98;1.70;;;21.50;60.20;;;;;;5011572;28;20044;-61
2022/09/11 12:43:28;;;;;;;1.95;1.85;;;21.50;60.70;;;;;;5011552;28;20497;-61
2022/09/11 12:45:55;;;;;;;1.70;1.60;;;21.50;59.30;;;;;;5010858;28;20053;-61
2022/09/11 12:48:31;;;;;;;1.83;1.73;;;21.50;61.30;;;;;;5011899;28;20509;-61
2022/09/11 12:50:57;;;;;;;2.25;1.65;;;21.50;60.40;;;;;;5011935;28;20041;-61
2022/09/11 12:53:32;;;;;;;1.98;1.67;;;21.50;59.90;;;;;;5011041;28;20116;-60
2022/09/11 12:56:00;;;;;;;;;;;21.50;60.10;;;;;;5013761;28;20037;-61
2022/09/11 12:58:34;;;;;;;1.77;1.60;;;21.50;59.50;;;;;;5012222;28;19960;-61
2022/09/11 13:01:32;;;;;;;2.35;1.90;;;21.50;60.00;;;;;;5011300;28;20144;-61
2022/09/11 13:04:20;;;;;;;1.85;1.75;;;21.50;59.20;;;;;;5011491;28;20034;-61
2022/09/11 13:07:03;;;;;;;2.00;1.60;;;21.60;60.50;;;;;;5009557;28;20170;-60
2022/09/11 13:09:48;;;;;;;1.50;1.50;;;21.50;59.70;;;;;;5012538;28;20096;-60
2022/09/11 13:12:22;;;;;;;2.80;1.67;;;21.50;59.50;;;;;;5009114;28;20418;-60